createdAt,value
2022-09-05T00:02:03.465Z,71.20
2022-09-05T00:05:09.980Z,71.40
2022-09-05T00:08:23.795Z,71.40
2022-09-05T00:11:42.586Z,71.40
2022-09-05T00:14:36.728Z,71.60
2022-09-05T00:17:52.717Z,71.50
2022-09-05T00:24:30.370Z,71.60
2022-09-05T00:24:54.777Z,71.50
2022-09-05T00:27:47.626Z,71.50
2022-09-05T00:31:07.810Z,71.60
2022-09-05T00:34:03.039Z,71.50
2022-09-05T00:36:55.074Z,71.50
2022-09-05T00:39:40.400Z,71.50
2022-09-05T00:42:19.721Z,71.40
2022-09-05T00:45:03.911Z,71.50
2022-09-05T00:47:47.939Z,71.50
2022-09-05T00:50:37.758Z,71.60
2022-09-05T00:53:26.143Z,71.70
2022-09-05T00:56:07.476Z,71.50
2022-09-05T00:58:54.460Z,71.60
2022-09-05T01:01:48.066Z,71.40
2022-09-05T01:04:47.822Z,71.40
2022-09-05T01:08:09.117Z,71.50
2022-09-05T01:11:02.151Z,71.50
2022-09-05T01:14:01.769Z,71.60
2022-09-05T01:17:05.780Z,71.50
2022-09-05T01:19:51.812Z,71.70
2022-09-05T01:22:59.247Z,71.80
2022-09-05T01:25:59.165Z,71.80
2022-09-05T01:29:18.164Z,71.80
2022-09-05T01:32:15.570Z,71.80
2022-09-05T01:35:40.331Z,71.80
2022-09-05T01:38:51.675Z,71.80
2022-09-05T01:41:58.541Z,71.90
2022-09-05T01:45:04.216Z,71.90
2022-09-05T01:48:02.059Z,72.70
2022-09-05T01:51:10.738Z,72.10
2022-09-05T01:54:34.411Z,72.10
2022-09-05T01:57:26.280Z,72.10
2022-09-05T02:00:09.633Z,72.10
2022-09-05T02:03:08.822Z,72.10
2022-09-05T02:05:57.766Z,72.10
2022-09-05T02:09:03.059Z,72.20
2022-09-05T02:12:18.349Z,72.20
2022-09-05T02:15:01.246Z,72.20
2022-09-05T02:17:50.838Z,72.20
2022-09-05T02:20:34.954Z,72.20
2022-09-05T02:23:24.611Z,72.20
2022-09-05T02:26:19.738Z,72.20
2022-09-05T02:29:28.453Z,72.00
2022-09-05T02:32:17.160Z,72.10
2022-09-05T02:35:31.673Z,72.00
2022-09-05T02:39:18.574Z,72.20
2022-09-05T02:45:12.931Z,72.20
2022-09-05T02:45:19.350Z,72.30
2022-09-05T02:47:49.557Z,72.50
2022-09-05T02:54:57.086Z,72.50
2022-09-05T02:57:33.718Z,72.50
2022-09-05T02:57:35.239Z,72.50
2022-09-05T03:00:19.375Z,72.50
2022-09-05T03:03:24.278Z,72.50
2022-09-05T03:06:17.757Z,72.60
2022-09-05T03:09:21.084Z,72.60
2022-09-05T03:12:29.149Z,72.60
2022-09-05T03:15:44.777Z,72.60
2022-09-05T03:18:52.458Z,72.60
2022-09-05T03:22:14.209Z,72.80
2022-09-05T03:25:29.912Z,72.80
2022-09-05T03:28:37.512Z,72.90
2022-09-05T03:31:57.918Z,73.10
2022-09-05T03:34:43.082Z,73.00
2022-09-05T03:37:25.556Z,73.00
2022-09-05T03:40:24.083Z,73.00
2022-09-05T03:43:37.572Z,73.10
2022-09-05T03:46:08.515Z,73.20
2022-09-05T03:52:53.429Z,73.30
2022-09-05T03:57:07.028Z,73.50
2022-09-05T03:57:16.512Z,73.60
2022-09-05T03:59:26.050Z,74.30
2022-09-05T04:04:22.690Z,73.80
2022-09-05T04:08:31.533Z,74.30
2022-09-05T04:08:36.974Z,73.70
2022-09-05T04:11:32.325Z,73.70
2022-09-05T04:14:46.571Z,73.70
2022-09-05T04:17:47.423Z,73.80
2022-09-05T04:20:50.627Z,73.70
2022-09-05T04:23:57.291Z,73.80
2022-09-05T04:27:04.262Z,73.80
2022-09-05T04:29:49.791Z,73.80
2022-09-05T04:32:46.332Z,73.80
2022-09-05T04:35:38.284Z,73.80
2022-09-05T04:38:16.122Z,73.70
2022-09-05T04:41:03.649Z,73.70
2022-09-05T04:44:02.611Z,73.80
2022-09-05T04:46:48.343Z,74.20
2022-09-05T04:49:26.841Z,75.20
2022-09-05T04:52:31.088Z,74.80
2022-09-05T04:55:08.053Z,74.50
2022-09-05T04:58:01.620Z,74.40
2022-09-05T05:05:58.220Z,74.60
2022-09-05T05:06:01.154Z,74.70
2022-09-05T05:07:07.789Z,74.70
2022-09-05T05:09:44.930Z,74.90
2022-09-05T05:18:00.051Z,75.00
2022-09-05T05:18:08.145Z,75.00
2022-09-05T05:18:53.226Z,74.90
2022-09-05T05:21:21.728Z,74.90
2022-09-05T05:24:09.859Z,75.00
2022-09-05T05:26:56.997Z,74.90
2022-09-05T05:29:46.135Z,75.10
2022-09-05T05:32:45.143Z,75.10
2022-09-05T05:35:33.429Z,75.00
2022-09-05T05:38:45.563Z,75.00
2022-09-05T05:41:36.884Z,75.00
2022-09-05T05:44:37.736Z,75.00
2022-09-05T05:47:38.570Z,75.00
2022-09-05T05:50:55.975Z,75.10
2022-09-05T05:53:43.503Z,75.00
2022-09-05T05:56:59.785Z,75.10
2022-09-05T05:59:59.048Z,75.20
2022-09-05T06:03:13.645Z,75.00
2022-09-05T06:06:04.696Z,75.10
2022-09-05T06:14:51.068Z,75.20
2022-09-05T06:14:58.563Z,75.10
2022-09-05T06:15:52.825Z,75.00
2022-09-05T06:18:52.087Z,75.00
2022-09-05T06:22:10.060Z,74.90
2022-09-05T06:24:49.308Z,74.80
2022-09-05T06:28:08.759Z,74.70
2022-09-05T06:30:57.135Z,74.70
2022-09-05T06:33:59.151Z,74.90
2022-09-05T06:36:58.810Z,74.70
2022-09-05T06:40:13.582Z,74.90
2022-09-05T06:43:04.987Z,75.00
2022-09-05T06:45:40.930Z,74.90
2022-09-05T06:48:45.680Z,75.00
2022-09-05T06:51:44.946Z,75.10
2022-09-05T06:54:59.615Z,75.10
2022-09-05T06:58:05.059Z,75.30
2022-09-05T07:00:48.144Z,75.30
2022-09-05T07:03:29.134Z,75.30
2022-09-05T07:06:52.394Z,75.40
2022-09-05T07:09:40.017Z,75.30
2022-09-05T07:12:30.207Z,75.30
2022-09-05T07:15:25.283Z,75.30
2022-09-05T07:18:43.914Z,75.50
2022-09-05T07:21:44.320Z,75.40
2022-09-05T07:24:53.661Z,75.20
2022-09-05T07:27:25.439Z,75.30
2022-09-05T07:30:01.770Z,75.40
2022-09-05T07:32:33.373Z,75.40
2022-09-05T07:35:04.933Z,75.50
2022-09-05T07:37:41.130Z,75.50
2022-09-05T07:40:29.274Z,75.60
2022-09-05T07:43:15.041Z,75.50
2022-09-05T07:46:04.473Z,75.70
2022-09-05T07:48:39.795Z,75.50
2022-09-05T07:56:46.070Z,75.60
2022-09-05T07:56:56.542Z,75.90
2022-09-05T07:57:27.015Z,76.00
2022-09-05T08:00:25.614Z,75.90
2022-09-05T08:03:01.274Z,76.00
2022-09-05T08:05:44.336Z,76.10
2022-09-05T08:08:20.377Z,76.20
2022-09-05T08:11:25.123Z,76.30
2022-09-05T08:14:35.445Z,76.60
2022-09-05T08:16:51.158Z,76.70
2022-09-05T08:20:01.781Z,76.90
2022-09-05T08:22:52.563Z,76.70
2022-09-05T08:25:42.150Z,76.40
2022-09-05T08:28:53.802Z,76.80
2022-09-05T08:31:38.751Z,76.40
2022-09-05T08:34:31.469Z,76.60
2022-09-05T08:37:23.057Z,76.50
2022-09-05T08:40:10.669Z,76.70
2022-09-05T08:46:06.461Z,76.70
2022-09-05T08:46:40.018Z,76.80
2022-09-05T08:50:16.352Z,76.60
2022-09-05T08:53:02.963Z,76.80
2022-09-05T08:56:05.653Z,77.00
2022-09-05T08:59:31.499Z,76.80
2022-09-05T09:02:47.547Z,76.80
2022-09-05T09:06:12.273Z,76.80
2022-09-05T09:09:18.592Z,76.70
2022-09-05T09:11:53.946Z,76.70
2022-09-05T09:14:54.395Z,77.50
2022-09-05T09:17:43.616Z,76.80
2022-09-05T09:20:33.680Z,77.00
2022-09-05T09:23:31.723Z,77.10
2022-09-05T09:26:18.091Z,76.90
2022-09-05T09:29:07.254Z,76.70
2022-09-05T09:32:13.562Z,77.50
2022-09-05T09:35:41.033Z,76.80
2022-09-05T09:38:31.472Z,76.90
2022-09-05T09:41:22.878Z,76.90
2022-09-05T09:44:30.858Z,76.90
2022-09-05T09:46:59.980Z,77.10
2022-09-05T09:49:36.915Z,76.80
2022-09-05T09:52:44.319Z,76.70
2022-09-05T09:55:56.515Z,77.10
2022-09-05T09:59:03.764Z,77.00
2022-09-05T10:02:07.347Z,76.80
2022-09-05T10:10:36.284Z,76.70
2022-09-05T10:11:22.457Z,76.60
2022-09-05T10:12:08.590Z,77.20
2022-09-05T10:15:39.845Z,76.60
2022-09-05T10:18:26.545Z,76.70
2022-09-05T10:21:15.313Z,76.50
2022-09-05T10:24:02.908Z,76.50
2022-09-05T10:26:59.958Z,76.50
2022-09-05T10:30:09.318Z,76.30
2022-09-05T10:35:19.676Z,76.20
2022-09-05T10:35:48.278Z,76.50
2022-09-05T10:38:23.399Z,76.40
2022-09-05T10:41:21.441Z,76.50
2022-09-05T10:44:02.516Z,76.50
2022-09-05T10:46:59.164Z,76.50
2022-09-05T10:49:31.296Z,76.50
2022-09-05T10:52:21.511Z,76.50
2022-09-05T10:55:22.786Z,76.50
2022-09-05T10:58:13.736Z,76.40
2022-09-05T11:02:22.938Z,76.30
2022-09-05T11:04:12.197Z,76.30
2022-09-05T11:06:46.152Z,76.10
2022-09-05T11:09:40.721Z,76.50
2022-09-05T11:12:57.742Z,76.40
2022-09-05T11:15:28.523Z,76.40
2022-09-05T11:18:08.851Z,76.20
2022-09-05T11:21:03.989Z,76.10
2022-09-05T11:23:47.560Z,76.10
2022-09-05T11:26:42.556Z,76.20
2022-09-05T11:29:15.298Z,76.00
2022-09-05T11:32:42.125Z,76.10
2022-09-05T11:38:55.123Z,76.00
2022-09-05T11:40:07.230Z,76.00
2022-09-05T11:41:26.757Z,75.90
2022-09-05T11:44:25.728Z,75.80
2022-09-05T11:47:29.894Z,75.70
2022-09-05T11:50:39.391Z,75.50
2022-09-05T11:53:44.409Z,75.70
2022-09-05T11:56:46.880Z,75.80
2022-09-05T12:00:17.218Z,75.90
2022-09-05T12:02:58.215Z,76.30
2022-09-05T12:05:50.167Z,76.30
2022-09-05T12:09:08.862Z,76.30
2022-09-05T12:12:18.674Z,76.30
2022-09-05T12:15:22.902Z,76.00
2022-09-05T12:18:19.579Z,75.70
2022-09-05T12:21:20.457Z,75.50
2022-09-05T12:24:49.762Z,75.70
2022-09-05T12:27:41.160Z,75.80
2022-09-05T12:30:08.332Z,75.90
2022-09-05T12:36:04.010Z,76.00
2022-09-05T12:36:10.757Z,75.90
2022-09-05T12:40:58.113Z,75.90
2022-09-05T12:42:54.762Z,76.10
2022-09-05T12:45:45.795Z,76.00
2022-09-05T12:48:38.511Z,76.00
2022-09-05T12:51:45.123Z,76.00
2022-09-05T12:54:33.302Z,76.20
2022-09-05T13:00:06.931Z,76.10
2022-09-05T13:03:11.102Z,76.00
2022-09-05T13:03:38.026Z,76.10
2022-09-05T13:06:31.116Z,76.10
2022-09-05T13:09:10.875Z,76.10
2022-09-05T13:14:54.122Z,76.00
2022-09-05T13:15:20.185Z,75.60
2022-09-05T13:18:22.411Z,75.60
2022-09-05T13:21:05.364Z,75.70
2022-09-05T13:24:06.905Z,75.90
2022-09-05T13:26:57.875Z,75.90
2022-09-05T13:31:28.580Z,75.90
2022-09-05T13:38:03.241Z,75.70
2022-09-05T13:38:06.458Z,75.70
2022-09-05T13:39:11.865Z,75.60
2022-09-05T13:41:59.667Z,75.60
2022-09-05T13:44:30.201Z,75.60
2022-09-05T13:47:29.909Z,75.60
2022-09-05T13:50:53.060Z,75.60
2022-09-05T13:53:51.948Z,75.60
2022-09-05T13:56:31.411Z,75.60
2022-09-05T13:59:09.680Z,75.50
2022-09-05T14:02:26.322Z,75.50
2022-09-05T14:05:20.158Z,75.50
2022-09-05T14:08:11.557Z,75.50
2022-09-05T14:11:18.235Z,75.70
2022-09-05T14:14:11.242Z,75.60
2022-09-05T14:16:53.635Z,75.70
2022-09-05T14:19:43.175Z,75.60
2022-09-05T14:22:28.432Z,75.50
2022-09-05T14:24:58.556Z,75.50
2022-09-05T14:27:32.156Z,75.60
2022-09-05T14:30:18.090Z,75.50
2022-09-05T14:37:39.804Z,75.50
2022-09-05T14:37:52.815Z,75.50
2022-09-05T14:39:51.228Z,75.50
2022-09-05T14:42:33.182Z,75.40
2022-09-05T14:45:23.162Z,75.30
2022-09-05T14:48:29.449Z,75.00
2022-09-05T14:51:25.625Z,74.80
2022-09-05T14:57:41.390Z,74.80
2022-09-05T15:02:48.564Z,74.90
2022-09-05T15:03:00.933Z,75.50
2022-09-05T15:05:28.604Z,74.70
2022-09-05T15:11:23.861Z,74.70
2022-09-05T15:12:18.511Z,74.80
2022-09-05T15:14:12.379Z,74.80
2022-09-05T15:16:45.877Z,74.90
2022-09-05T15:20:11.905Z,75.00
2022-09-05T15:22:47.042Z,75.10
2022-09-05T15:25:23.214Z,74.90
2022-09-05T15:27:51.412Z,74.80
2022-09-05T15:30:34.834Z,74.70
2022-09-05T15:33:30.143Z,74.70
2022-09-05T15:35:59.845Z,74.70
2022-09-05T15:38:34.984Z,74.80
2022-09-05T15:41:30.635Z,74.70
2022-09-05T15:44:10.178Z,74.50
2022-09-05T15:46:49.526Z,74.30
2022-09-05T15:49:36.260Z,74.30
2022-09-05T15:52:29.349Z,74.40
2022-09-05T15:55:24.104Z,74.50
2022-09-05T15:58:00.532Z,74.40
2022-09-05T16:00:55.716Z,74.30
2022-09-05T16:07:47.334Z,74.30
2022-09-05T16:10:48.736Z,74.30
2022-09-05T16:10:50.492Z,74.30
2022-09-05T16:12:42.573Z,74.20
2022-09-05T16:19:51.881Z,74.30
2022-09-05T16:23:14.096Z,74.20
2022-09-05T16:23:23.591Z,74.20
2022-09-05T16:24:15.239Z,74.30
2022-09-05T16:26:48.864Z,74.50
2022-09-05T16:29:28.301Z,74.40
2022-09-05T16:32:07.689Z,74.60
2022-09-05T16:34:52.755Z,74.70
2022-09-05T16:37:29.125Z,74.70
2022-09-05T16:40:25.164Z,74.80
2022-09-05T16:43:36.886Z,74.70
2022-09-05T16:46:34.347Z,74.80
2022-09-05T16:49:39.970Z,74.80
2022-09-05T16:52:17.802Z,74.90
2022-09-05T16:54:52.461Z,74.90
2022-09-05T16:57:32.551Z,74.90
2022-09-05T17:00:00.491Z,74.80
2022-09-05T17:02:48.845Z,74.80
2022-09-05T17:05:35.932Z,74.80
2022-09-05T17:08:26.611Z,74.90
2022-09-05T17:11:04.944Z,74.70
2022-09-05T17:13:53.945Z,74.80
2022-09-05T17:16:55.685Z,74.80
2022-09-05T17:19:37.477Z,74.80
2022-09-05T17:26:13.250Z,75.40
2022-09-05T17:29:25.499Z,74.90
2022-09-05T17:29:32.367Z,74.80
2022-09-05T17:31:56.934Z,75.00
2022-09-05T17:35:16.443Z,75.00
2022-09-05T17:38:11.192Z,75.00
2022-09-05T17:41:15.580Z,75.00
2022-09-05T17:43:43.458Z,75.10
2022-09-05T17:46:19.453Z,74.90
2022-09-05T17:48:49.292Z,74.80
2022-09-05T17:51:51.371Z,74.60
2022-09-05T17:54:32.117Z,74.70
2022-09-05T17:57:28.298Z,74.80
2022-09-05T18:00:07.040Z,74.70
2022-09-05T18:02:56.927Z,74.80
2022-09-05T18:05:57.090Z,74.90
2022-09-05T18:08:46.092Z,74.90
2022-09-05T18:11:25.566Z,74.80
2022-09-05T18:14:02.024Z,74.80
2022-09-05T18:19:44.024Z,74.80
2022-09-05T18:22:34.328Z,74.80
2022-09-05T18:25:33.520Z,74.90
2022-09-05T18:28:31.557Z,74.90
2022-09-05T18:31:41.718Z,75.00
2022-09-05T18:34:24.463Z,74.90
2022-09-05T18:36:58.842Z,74.80
2022-09-05T18:39:38.677Z,75.00
2022-09-05T18:42:33.166Z,75.00
2022-09-05T18:45:28.732Z,74.90
2022-09-05T18:48:09.110Z,74.90
2022-09-05T18:50:46.492Z,75.00
2022-09-05T18:53:27.125Z,75.00
2022-09-05T18:56:20.310Z,75.00
2022-09-05T18:59:24.118Z,75.10
2022-09-05T19:02:28.692Z,75.20
2022-09-05T19:05:33.053Z,75.10
2022-09-05T19:08:26.784Z,75.10
2022-09-05T19:11:02.040Z,75.20
2022-09-05T19:13:57.763Z,75.10
2022-09-05T19:16:47.292Z,75.10
2022-09-05T19:19:18.734Z,75.10
2022-09-05T19:22:42.293Z,75.10
2022-09-05T19:24:48.411Z,74.90
2022-09-05T19:28:35.040Z,74.80
2022-09-05T19:36:50.318Z,74.70
2022-09-05T19:36:59.028Z,74.70
2022-09-05T19:37:10.686Z,74.80
2022-09-05T19:41:41.318Z,74.80
2022-09-05T19:47:29.585Z,74.90
2022-09-05T19:47:51.105Z,74.90
2022-09-05T19:48:07.699Z,75.00
2022-09-05T19:50:31.189Z,75.00
2022-09-05T19:53:07.559Z,75.00
2022-09-05T19:55:39.663Z,75.00
2022-09-05T19:58:25.597Z,75.20
2022-09-05T20:01:08.432Z,75.20
2022-09-05T20:03:43.396Z,75.20
2022-09-05T20:06:31.043Z,75.20
2022-09-05T20:09:15.704Z,75.20
2022-09-05T20:11:58.791Z,74.90
2022-09-05T20:14:35.761Z,74.90
2022-09-05T20:17:31.408Z,74.70
2022-09-05T20:20:10.527Z,74.80
2022-09-05T20:22:49.539Z,75.10
2022-09-05T20:25:44.312Z,74.90
2022-09-05T20:28:22.155Z,75.00
2022-09-05T20:31:02.162Z,75.10
2022-09-05T20:33:48.349Z,75.10
2022-09-05T20:43:08.423Z,75.20
2022-09-05T20:43:27.335Z,75.10
2022-09-05T20:43:31.714Z,75.20
2022-09-05T20:46:46.279Z,75.30
2022-09-05T20:54:05.615Z,75.40
2022-09-05T20:54:13.490Z,75.40
2022-09-05T20:54:41.319Z,75.40
2022-09-05T20:57:26.172Z,75.40
2022-09-05T20:59:57.680Z,75.50
2022-09-05T21:02:32.496Z,75.70
2022-09-05T21:05:21.242Z,75.80
2022-09-05T21:08:02.473Z,75.80
2022-09-05T21:11:02.625Z,75.90
2022-09-05T21:13:52.398Z,75.90
2022-09-05T21:16:24.898Z,76.00
2022-09-05T21:18:52.838Z,75.90
2022-09-05T21:21:33.175Z,75.90
2022-09-05T21:24:16.141Z,75.90
2022-09-05T21:26:48.163Z,76.00
2022-09-05T21:29:26.059Z,76.10
2022-09-05T21:32:02.357Z,76.20
2022-09-05T21:34:38.646Z,76.20
2022-09-05T21:37:15.795Z,76.20
2022-09-05T21:39:59.137Z,76.20
2022-09-05T21:45:18.094Z,76.30
2022-09-05T21:47:47.159Z,76.30
2022-09-05T21:48:18.441Z,76.30
2022-09-05T21:50:49.718Z,76.30
2022-09-05T21:59:03.412Z,76.40
2022-09-05T21:59:33.587Z,76.50
2022-09-05T22:02:08.582Z,77.20
2022-09-05T22:04:41.142Z,76.70
2022-09-05T22:07:09.355Z,76.70
2022-09-05T22:09:36.865Z,76.70
2022-09-05T22:12:29.867Z,76.70
2022-09-05T22:14:52.324Z,76.80
2022-09-05T22:17:22.642Z,76.70
2022-09-05T22:19:50.519Z,76.90
2022-09-05T22:22:19.343Z,76.90
2022-09-05T22:25:02.226Z,76.90
2022-09-05T22:27:32.344Z,77.00
2022-09-05T22:30:02.025Z,77.00
2022-09-05T22:32:31.013Z,77.10
2022-09-05T22:35:27.506Z,77.10
2022-09-05T22:38:00.354Z,77.10
2022-09-05T22:40:30.522Z,77.20
2022-09-05T22:43:01.052Z,77.10
2022-09-05T22:45:33.049Z,77.20
2022-09-05T22:48:11.169Z,77.30
2022-09-05T22:50:40.266Z,77.30
2022-09-05T22:53:09.983Z,77.40
2022-09-05T22:55:42.735Z,77.40
2022-09-05T22:58:13.819Z,77.50
2022-09-05T23:00:42.250Z,77.50
2022-09-05T23:03:09.689Z,77.50
2022-09-05T23:05:37.531Z,77.60
2022-09-05T23:08:06.560Z,77.70
2022-09-05T23:10:35.892Z,77.70
2022-09-05T23:13:09.192Z,77.70
2022-09-05T23:15:37.846Z,77.80
2022-09-05T23:18:05.912Z,77.80
2022-09-05T23:20:34.426Z,77.80
2022-09-05T23:23:07.060Z,77.70
2022-09-05T23:25:35.859Z,77.70
2022-09-05T23:28:10.224Z,77.80
2022-09-05T23:30:40.278Z,77.90
2022-09-05T23:33:09.740Z,77.90
2022-09-05T23:35:38.011Z,78.70
2022-09-05T23:38:12.432Z,77.90
2022-09-05T23:40:40.222Z,77.80
2022-09-05T23:43:08.110Z,77.90
2022-09-05T23:45:36.246Z,77.90
2022-09-05T23:48:04.201Z,77.90
2022-09-05T23:50:31.712Z,78.00
2022-09-05T23:53:04.946Z,77.90
2022-09-05T23:55:32.981Z,78.00
2022-09-05T23:58:00.907Z,78.00
